Time;durP1;ratioP1;P1;durP2;ratioP2;P2;SDS_P1;SDS_P2;PMS_P1;PMS_P2;Temp;Humidity;BMP_temperature;BMP_pressure;BME280_temperature;BME280_humidity;BME280_pressure;Samples;Min_cycle;Max_cycle;Signal;HPM_P1;HPM_P2
2022/01/08 00:01:53;;;;;;;1.88;0.90;;;;;;;14.31;40.25;96449.09;5106272;28;20465;-29
2022/01/08 00:04:19;;;;;;;1.50;1.00;;;;;;;14.24;40.13;96445.88;5098753;28;20017;-29
2022/01/08 00:06:44;;;;;;;1.45;1.00;;;;;;;14.21;40.23;96441.31;5103186;28;20047;-29
2022/01/08 00:09:10;;;;;;;1.95;1.10;;;;;;;14.22;40.15;96435.41;5092031;28;20394;-28
2022/01/08 00:11:35;;;;;;;2.67;0.98;;;;;;;14.16;40.30;96433.72;5095047;28;20092;-29
2022/01/08 00:14:04;;;;;;;1.75;0.90;;;;;;;14.13;40.14;96423.72;5092454;28;20032;-29
2022/01/08 00:16:33;;;;;;;2.00;1.15;;;;;;;14.09;40.57;96434.00;5092247;28;20028;-29
2022/01/08 00:18:59;;;;;;;1.85;1.10;;;;;;;14.15;40.13;96429.47;5092274;28;20028;-29
2022/01/08 00:21:24;;;;;;;2.83;1.17;;;;;;;14.10;40.24;96428.09;5091506;28;20039;-28
2022/01/08 00:23:50;;;;;;;1.98;1.02;;;;;;;14.22;40.25;96432.66;5091385;28;20095;-29
2022/01/08 00:26:15;;;;;;;1.73;1.10;;;;;;;14.17;40.50;96425.09;5091921;28;20431;-29
2022/01/08 00:28:41;;;;;;;2.35;1.10;;;;;;;14.22;40.17;96429.19;5091668;28;20032;-29
2022/01/08 00:31:09;;;;;;;1.98;1.20;;;;;;;14.24;40.34;96418.59;5091764;28;20461;-28
2022/01/08 00:33:38;;;;;;;2.20;0.98;;;;;;;14.23;40.32;96415.09;5092217;28;20059;-28
2022/01/08 00:36:05;;;;;;;1.77;0.90;;;;;;;14.09;40.30;96417.66;5094134;28;20401;-30
2022/01/08 00:38:31;;;;;;;2.97;1.13;;;;;;;14.20;40.30;96412.53;5093898;28;20095;-28
2022/01/08 00:40:56;;;;;;;1.52;1.10;;;;;;;14.17;40.38;96421.59;5094049;28;20135;-29
2022/01/08 00:43:21;;;;;;;1.65;1.10;;;;;;;14.10;40.52;96410.97;5093902;28;20106;-29
2022/01/08 00:45:48;;;;;;;2.13;1.00;;;;;;;14.15;40.27;96415.84;5093872;28;20096;-29
2022/01/08 00:48:13;;;;;;;1.42;1.00;;;;;;;14.11;40.37;96415.97;5093731;28;20412;-29
2022/01/08 00:50:39;;;;;;;2.60;0.90;;;;;;;14.10;40.26;96416.41;5093669;28;20069;-29
2022/01/08 00:53:05;;;;;;;1.10;0.80;;;;;;;14.22;40.03;96423.72;5093359;28;20044;-28
2022/01/08 00:55:30;;;;;;;1.60;0.95;;;;;;;14.16;39.97;96411.91;5093872;28;20032;-29
2022/01/08 00:57:55;;;;;;;3.13;1.13;;;;;;;14.10;40.09;96408.25;5093845;28;20086;-29
2022/01/08 01:00:21;;;;;;;2.33;1.00;;;;;;;14.11;40.30;96426.13;5093422;28;20020;-28
2022/01/08 01:02:47;;;;;;;1.30;1.00;;;;;;;14.14;40.10;96422.50;5093540;28;20408;-31
2022/01/08 01:05:12;;;;;;;2.85;1.20;;;;;;;14.22;39.97;96429.19;5093487;28;20020;-30
2022/01/08 01:07:38;;;;;;;2.53;1.20;;;;;;;14.19;40.09;96430.09;5093646;28;20476;-29
2022/01/08 01:10:06;;;;;;;2.80;1.02;;;;;;;14.08;40.30;96430.53;5093261;28;20028;-28
2022/01/08 01:12:32;;;;;;;2.13;1.25;;;;;;;14.16;39.97;96433.72;5093832;28;20031;-29
2022/01/08 01:14:57;;;;;;;2.95;1.40;;;;;;;14.15;40.36;96432.19;5093356;28;20028;-29
2022/01/08 01:17:23;;;;;;;2.00;1.10;;;;;;;14.11;40.04;96432.34;5093194;28;20053;-30
2022/01/08 01:19:49;;;;;;;1.30;1.10;;;;;;;14.11;40.07;96429.59;5092070;28;20024;-29
2022/01/08 01:22:18;;;;;;;1.70;0.85;;;;;;;14.01;40.02;96428.06;5093332;28;20394;-29
2022/01/08 01:24:44;;;;;;;3.03;1.20;;;;;;;14.07;40.30;96425.50;5093189;28;20489;-28
2022/01/08 01:27:42;;;;;;;2.20;1.10;;;;;;;14.01;40.44;96430.78;5093373;28;20032;-28
2022/01/08 01:30:12;;;;;;;2.65;1.15;;;;;;;14.06;39.93;96413.09;5092986;28;20381;-29
2022/01/08 01:48:46;;;;;;;2.83;1.02;;;;;;;13.86;40.44;96414.22;5093316;28;20077;-29
2022/01/08 01:51:22;;;;;;;2.03;0.90;;;;;;;13.83;40.13;96417.84;5093075;28;20024;-29
2022/01/08 01:53:49;;;;;;;2.22;1.02;;;;;;;13.90;39.99;96417.56;5092703;28;20044;-29
2022/01/08 01:56:16;;;;;;;1.88;1.13;;;;;;;13.94;39.74;96423.66;5093192;28;20024;-29
2022/01/08 01:58:41;;;;;;;1.77;1.02;;;;;;;13.93;40.26;96422.13;5093213;28;20378;-30
2022/01/08 02:01:07;;;;;;;2.35;1.00;;;;;;;13.92;39.56;96420.59;5092956;28;20028;-29
2022/01/08 02:03:33;;;;;;;1.55;0.90;;;;;;;13.99;39.81;96430.47;5092806;28;20024;-28
2022/01/08 02:05:59;;;;;;;2.22;0.98;;;;;;;14.01;39.95;96420.63;5092839;28;20020;-28
2022/01/08 02:08:24;;;;;;;1.83;0.90;;;;;;;13.97;39.58;96419.28;5093100;28;20153;-29
2022/01/08 02:10:49;;;;;;;1.15;0.77;;;;;;;13.90;39.94;96411.34;5092981;28;20020;-29
2022/01/08 02:13:23;;;;;;;1.50;0.77;;;;;;;13.96;39.71;96409.56;5092813;28;20024;-29
2022/01/08 02:15:52;;;;;;;2.08;1.25;;;;;;;13.90;39.93;96409.38;5092752;28;20024;-29
2022/01/08 02:18:18;;;;;;;1.42;0.90;;;;;;;13.97;39.82;96406.38;5092771;28;20108;-29
2022/01/08 02:20:44;;;;;;;2.05;0.88;;;;;;;14.05;39.30;96406.13;5092624;28;20078;-29
2022/01/08 02:23:09;;;;;;;2.25;1.00;;;;;;;13.99;39.53;96414.88;5093097;28;20024;-29
2022/01/08 02:25:34;;;;;;;3.53;1.25;;;;;;;13.97;39.34;96411.81;5096496;28;20109;-29
2022/01/08 02:28:03;;;;;;;1.20;0.80;;;;;;;13.89;39.54;96399.69;5096393;28;20421;-29
2022/01/08 02:30:29;;;;;;;2.33;0.90;;;;;;;13.92;39.35;96396.06;5096327;28;20099;-28
2022/01/08 02:32:54;;;;;;;1.02;0.77;;;;;;;13.83;39.54;96389.84;5094938;28;20054;-29
2022/01/08 02:35:22;;;;;;;2.10;0.90;;;;;;;14.01;39.21;96390.66;5096287;28;20028;-28
2022/01/08 02:37:48;;;;;;;1.30;0.70;;;;;;;13.97;39.41;96392.00;5096516;28;20024;-29
2022/01/08 02:40:14;;;;;;;2.08;0.93;;;;;;;13.98;39.32;96374.41;5096472;28;20069;-29
2022/01/08 02:42:49;;;;;;;1.27;1.10;;;;;;;14.02;39.40;96362.16;5096210;28;20472;-28
2022/01/08 02:45:16;;;;;;;1.30;1.10;;;;;;;14.03;39.42;96357.47;5096181;28;20012;-29
2022/01/08 02:47:41;;;;;;;1.65;0.90;;;;;;;14.00;39.47;96361.84;5096371;28;20105;-28
2022/01/08 02:50:07;;;;;;;1.73;0.90;;;;;;;14.06;39.11;96358.56;5095830;28;20062;-29
2022/01/08 02:52:33;;;;;;;2.72;1.10;;;;;;;14.02;39.57;96354.00;5095809;28;20406;-29
2022/01/08 02:54:58;;;;;;;1.48;1.17;;;;;;;13.98;39.42;96347.91;5095970;28;20111;-28
2022/01/08 02:57:24;;;;;;;2.63;1.10;;;;;;;14.02;39.38;96347.78;5095916;28;20065;-29
2022/01/08 02:59:49;;;;;;;1.73;1.20;;;;;;;14.03;39.02;96344.59;5095994;28;20454;-29
2022/01/08 03:02:15;;;;;;;1.17;0.77;;;;;;;13.95;39.50;96337.16;5095751;28;20051;-29
2022/01/08 03:04:40;;;;;;;1.55;0.98;;;;;;;14.00;39.17;96342.78;5095988;28;20027;-29
2022/01/08 03:07:06;;;;;;;1.77;1.10;;;;;;;13.99;39.06;96341.25;5095720;28;20028;-28
2022/01/08 03:09:37;;;;;;;2.13;1.08;;;;;;;13.98;39.02;96333.53;5095651;28;20016;-29
2022/01/08 03:12:03;;;;;;;1.65;1.00;;;;;;;14.00;39.06;96326.41;5095547;28;20020;-29
2022/01/08 03:14:28;;;;;;;1.67;1.10;;;;;;;14.02;39.29;96320.50;5095669;28;20386;-28
2022/01/08 03:16:53;;;;;;;2.53;1.27;;;;;;;13.97;39.40;96316.41;5095300;28;20035;-29
2022/01/08 03:19:19;;;;;;;2.22;1.17;;;;;;;13.95;39.11;96318.09;5095496;28;20020;-29
2022/01/08 03:21:51;;;;;;;2.78;1.02;;;;;;;13.98;39.26;96314.44;5095467;28;20108;-29
2022/01/08 03:24:25;;;;;;;1.13;1.00;;;;;;;13.91;39.04;96315.50;5095329;28;20474;-29
2022/01/08 03:26:50;;;;;;;1.50;1.00;;;;;;;13.84;39.43;96317.75;5095302;28;20024;-29
2022/01/08 03:29:16;;;;;;;1.60;1.08;;;;;;;13.94;39.57;96322.00;5095324;28;20026;-28
2022/01/08 03:31:41;;;;;;;1.85;1.08;;;;;;;13.89;39.45;96319.88;5095340;28;20040;-29
2022/01/08 03:34:07;;;;;;;1.63;1.23;;;;;;;13.85;39.59;96314.56;5095246;28;20024;-28
2022/01/08 03:36:33;;;;;;;2.45;1.10;;;;;;;13.82;39.64;96318.19;5095161;28;20039;-29
2022/01/08 03:38:58;;;;;;;2.38;0.90;;;;;;;13.91;39.19;96314.72;5095053;28;20032;-28
2022/01/08 03:41:24;;;;;;;1.75;0.95;;;;;;;13.96;39.04;96323.09;5095096;28;20024;-28
2022/01/08 03:43:50;;;;;;;2.00;1.00;;;;;;;13.91;39.02;96322.91;5095038;28;20016;-30
2022/01/08 03:46:18;;;;;;;2.85;1.25;;;;;;;13.94;39.29;96314.59;5094941;28;20470;-28
2022/01/08 03:49:10;;;;;;;3.67;1.08;;;;;;;13.94;39.38;96325.50;5094832;28;20496;-29
2022/01/08 03:51:32;;;;;;;1.90;1.00;;;;;;;13.83;39.58;96322.44;5094639;28;20063;-29
2022/01/08 03:53:58;;;;;;;1.98;1.00;;;;;;;13.96;39.50;96319.59;5094627;28;20451;-29
2022/01/08 03:56:25;;;;;;;1.83;1.13;;;;;;;13.95;39.21;96321.56;5094724;28;20024;-29
2022/01/08 03:58:50;;;;;;;1.17;0.82;;;;;;;13.95;39.01;96329.00;5094709;28;20035;-28
2022/01/08 04:01:16;;;;;;;1.27;0.80;;;;;;;13.91;39.23;96334.56;5094639;28;20020;-29
2022/01/08 04:03:42;;;;;;;1.40;1.15;;;;;;;13.91;39.30;96331.09;5094541;28;20103;-29
2022/01/08 04:06:07;;;;;;;2.03;1.15;;;;;;;13.90;39.67;96338.50;5094400;28;20020;-29
2022/01/08 04:08:33;;;;;;;1.83;0.95;;;;;;;13.88;39.47;96340.16;5094414;28;20055;-29
2022/01/08 04:10:58;;;;;;;2.25;0.98;;;;;;;13.89;39.23;96334.25;5094643;28;20486;-29
2022/01/08 04:13:28;;;;;;;2.30;1.00;;;;;;;13.92;39.11;96332.59;5094359;28;20024;-29
2022/01/08 04:16:06;;;;;;;2.00;0.80;;;;;;;13.89;39.24;96317.16;5094512;28;20080;-28
2022/01/08 04:18:31;;;;;;;2.08;1.02;;;;;;;13.88;39.52;96324.56;5094130;28;20035;-29
2022/01/08 04:21:41;;;;;;;2.22;1.00;;;;;;;13.89;39.58;96320.63;5094463;28;20024;-28
2022/01/08 04:23:56;;;;;;;3.30;1.10;;;;;;;13.89;39.42;96323.34;5094236;28;20031;-29
2022/01/08 04:26:23;;;;;;;2.35;1.00;;;;;;;13.84;39.59;96326.69;5094278;28;20024;-29
2022/01/08 04:28:49;;;;;;;1.20;0.90;;;;;;;13.90;39.04;96332.28;5094190;28;20023;-30
2022/01/08 04:31:15;;;;;;;2.97;1.10;;;;;;;13.86;39.27;96324.25;5094160;28;20120;-28
2022/01/08 04:33:40;;;;;;;1.67;0.88;;;;;;;13.87;39.31;96316.84;5093898;28;20130;-28
2022/01/08 04:36:07;;;;;;;1.85;1.10;;;;;;;13.81;39.45;96329.53;5094037;28;20355;-29
2022/01/08 04:38:33;;;;;;;1.10;0.70;;;;;;;13.87;38.83;96331.22;5094093;28;20111;-28
2022/01/08 04:40:59;;;;;;;2.42;0.98;;;;;;;13.88;38.69;96324.56;5093891;28;20486;-29
2022/01/08 04:43:24;;;;;;;1.40;0.93;;;;;;;13.81;39.15;96313.94;5093705;28;20066;-28
2022/01/08 04:45:51;;;;;;;1.60;1.13;;;;;;;13.82;39.38;96317.44;5093406;28;20054;-29
2022/01/08 04:48:18;;;;;;;2.08;1.00;;;;;;;13.83;38.99;96313.50;5092383;28;20028;-30
2022/01/08 04:50:44;;;;;;;1.30;1.08;;;;;;;13.79;38.85;96313.63;5093667;28;20027;-29
2022/01/08 04:53:10;;;;;;;2.45;1.08;;;;;;;13.85;39.11;96314.56;5093543;28;20048;-29
2022/01/08 04:55:36;;;;;;;1.67;0.90;;;;;;;13.82;39.36;96320.94;5093724;28;20386;-29
2022/01/08 04:58:01;;;;;;;1.33;1.00;;;;;;;13.83;38.95;96317.00;5093509;28;20026;-29
2022/01/08 05:00:27;;;;;;;1.40;0.85;;;;;;;13.82;38.84;96312.75;5093545;28;20115;-29
2022/01/08 05:02:52;;;;;;;2.30;1.00;;;;;;;13.87;38.90;96314.88;5093535;28;20485;-29
2022/01/08 05:05:18;;;;;;;1.58;1.08;;;;;;;13.77;39.11;96326.97;5093705;28;20024;-29
2022/01/08 05:07:43;;;;;;;1.52;1.00;;;;;;;13.72;39.05;96324.84;5093467;28;20095;-29
2022/01/08 05:10:09;;;;;;;2.53;1.25;;;;;;;13.76;39.36;96324.69;5093784;28;20423;-28
2022/01/08 05:12:35;;;;;;;2.38;1.13;;;;;;;13.65;39.12;96323.13;5093661;28;20028;-28
2022/01/08 05:15:02;;;;;;;1.65;0.90;;;;;;;13.76;39.22;96313.78;5093798;28;20386;-28
2022/01/08 05:17:32;;;;;;;2.13;1.10;;;;;;;13.83;39.28;96321.69;5093581;28;20130;-28
2022/01/08 05:20:01;;;;;;;2.40;1.00;;;;;;;13.76;38.74;96309.09;5093807;28;20024;-29
2022/01/08 05:22:29;;;;;;;2.65;0.90;;;;;;;13.77;39.28;96316.06;5091985;28;20016;-28
2022/01/08 05:24:55;;;;;;;2.70;1.13;;;;;;;13.77;38.83;96316.06;5093685;28;20390;-29
2022/01/08 05:27:21;;;;;;;1.13;0.70;;;;;;;13.74;38.79;96321.63;5093248;28;20539;-29
2022/01/08 05:29:50;;;;;;;1.08;0.73;;;;;;;13.73;39.00;96315.44;5093457;28;20071;-29
2022/01/08 05:32:19;;;;;;;1.67;0.90;;;;;;;13.75;39.16;96323.91;5093157;28;20024;-29
2022/01/08 05:34:49;;;;;;;2.78;0.80;;;;;;;13.75;38.67;96329.38;5093269;28;20027;-29
2022/01/08 05:37:16;;;;;;;1.80;0.90;;;;;;;13.74;39.26;96333.28;5093004;28;20485;-28
2022/01/08 05:39:42;;;;;;;2.10;0.80;;;;;;;13.77;38.86;96326.97;5093585;28;20409;-28
2022/01/08 05:42:08;;;;;;;3.30;1.13;;;;;;;13.74;38.90;96327.09;5093287;28;20049;-29
2022/01/08 05:44:34;;;;;;;1.38;0.90;;;;;;;13.84;38.62;96328.66;5093152;28;20351;-29
2022/01/08 05:47:00;;;;;;;2.75;1.08;;;;;;;13.78;38.91;96328.47;5093059;28;20031;-28
2022/01/08 05:49:25;;;;;;;1.65;0.90;;;;;;;13.80;38.66;96320.63;5092867;28;20099;-29
2022/01/08 05:51:51;;;;;;;1.73;0.90;;;;;;;13.73;38.75;96334.50;5092916;28;20527;-29
2022/01/08 05:54:16;;;;;;;2.17;0.82;;;;;;;13.77;38.84;96326.97;5092801;28;20591;-29
2022/01/08 05:56:42;;;;;;;1.50;0.93;;;;;;;13.76;38.55;96330.13;5093048;28;20035;-28
2022/01/08 05:59:07;;;;;;;1.67;1.00;;;;;;;13.73;38.80;96342.69;5096373;28;20070;-29
2022/01/08 06:01:34;;;;;;;1.65;0.95;;;;;;;13.71;38.70;96345.13;5096895;28;20024;-28
2022/01/08 06:04:00;;;;;;;1.45;1.05;;;;;;;13.74;38.61;96352.38;5097021;28;20069;-29
2022/01/08 06:06:25;;;;;;;1.52;0.90;;;;;;;13.75;38.75;96356.63;5097166;28;20059;-29
2022/01/08 06:08:52;;;;;;;2.10;1.00;;;;;;;13.66;39.08;96351.13;5096971;28;20115;-28
2022/01/08 06:11:18;;;;;;;1.88;1.00;;;;;;;13.65;39.05;96349.63;5096823;28;20364;-30
2022/01/08 06:13:43;;;;;;;2.13;1.02;;;;;;;13.66;38.65;96349.19;5096656;28;20031;-29
2022/01/08 06:16:09;;;;;;;2.20;1.20;;;;;;;13.65;38.88;96347.66;5096750;28;20070;-29
2022/01/08 06:18:35;;;;;;;2.10;1.10;;;;;;;13.64;38.87;96350.81;5096523;28;20110;-28
2022/01/08 06:21:01;;;;;;;1.85;1.00;;;;;;;13.70;38.45;96338.16;5096688;28;20046;-28
2022/01/08 06:23:27;;;;;;;2.13;1.02;;;;;;;13.66;38.70;96346.44;5096689;28;20471;-29
2022/01/08 06:25:53;;;;;;;1.95;1.00;;;;;;;13.68;38.33;96345.25;5096446;28;20433;-28
2022/01/08 06:28:18;;;;;;;2.15;1.05;;;;;;;13.72;38.35;96343.16;5095251;28;20028;-29
2022/01/08 06:30:43;;;;;;;1.42;0.90;;;;;;;13.70;38.26;96354.50;5094133;28;20103;-28
2022/01/08 06:33:09;;;;;;;1.45;0.85;;;;;;;13.67;38.53;96352.66;5093809;28;20020;-29
2022/01/08 06:35:35;;;;;;;2.55;1.20;;;;;;;13.66;38.49;96353.88;5093864;28;20049;-29
2022/01/08 06:38:00;;;;;;;2.15;1.00;;;;;;;13.69;38.37;96354.94;5094566;28;20420;-28
2022/01/08 06:40:26;;;;;;;1.42;0.98;;;;;;;13.52;38.10;96349.72;5094264;28;20046;-29
2022/01/08 06:42:51;;;;;;;2.38;1.10;;;;;;;13.62;38.63;96358.69;5092366;28;20024;-29
2022/01/08 06:45:16;;;;;;;3.22;1.00;;;;;;;13.51;38.66;96358.34;5094266;28;20016;-28
2022/01/08 06:47:45;;;;;;;1.23;0.90;;;;;;;13.59;37.96;96354.16;5094274;28;20031;-28
2022/01/08 06:50:14;;;;;;;1.92;1.00;;;;;;;13.55;38.06;96357.00;5094130;28;20080;-29
2022/01/08 06:52:39;;;;;;;3.05;1.20;;;;;;;13.62;38.21;96361.41;5093892;28;20403;-29
2022/01/08 06:55:06;;;;;;;1.85;1.08;;;;;;;13.46;38.21;96367.09;5093552;28;20524;-29
2022/01/08 06:57:31;;;;;;;2.63;1.10;;;;;;;13.55;37.87;96367.16;5093973;28;20051;-29
2022/01/08 06:59:57;;;;;;;3.08;1.05;;;;;;;13.60;38.32;96372.00;5093775;28;20078;-28
2022/01/08 07:02:22;;;;;;;1.40;0.93;;;;;;;13.61;37.96;96368.06;5093973;28;20126;-29
2022/01/08 07:04:47;;;;;;;1.40;0.93;;;;;;;13.56;37.64;96368.66;5093862;28;20091;-29
2022/01/08 07:07:13;;;;;;;2.10;1.13;;;;;;;13.61;37.91;96373.50;5093468;28;20062;-29
2022/01/08 07:09:38;;;;;;;2.08;1.08;;;;;;;13.57;37.42;96372.91;5093378;28;20114;-28
2022/01/08 07:12:04;;;;;;;2.85;1.05;;;;;;;13.62;37.75;96375.03;5093682;28;20034;-29
2022/01/08 07:14:30;;;;;;;1.58;1.00;;;;;;;13.54;37.72;96371.84;5093489;28;20473;-29
2022/01/08 07:16:55;;;;;;;1.70;1.10;;;;;;;13.60;37.67;96377.44;5093440;28;20028;-28
2022/01/08 07:19:21;;;;;;;1.98;1.23;;;;;;;13.61;37.36;96379.72;5091768;28;20474;-29
2022/01/08 07:21:46;;;;;;;2.08;1.20;;;;;;;13.51;37.75;96380.13;5093445;28;20028;-29
2022/01/08 07:24:12;;;;;;;2.33;1.00;;;;;;;13.57;37.19;96372.91;5091964;28;20039;-28
2022/01/08 07:26:37;;;;;;;2.22;1.10;;;;;;;13.49;37.75;96363.47;5093302;28;20506;-29
2022/01/08 07:29:03;;;;;;;1.30;0.88;;;;;;;13.55;37.55;96367.16;5093314;28;20110;-28
2022/01/08 07:31:28;;;;;;;2.00;0.80;;;;;;;13.57;37.58;96367.47;5093085;28;20039;-28
2022/01/08 07:33:53;;;;;;;1.45;1.00;;;;;;;13.58;37.42;96374.44;5093148;28;20081;-29
2022/01/08 07:36:20;;;;;;;1.08;0.95;;;;;;;13.54;37.25;96373.78;5093242;28;20074;-29
2022/01/08 07:38:47;;;;;;;1.55;0.95;;;;;;;13.56;37.54;96365.94;5093096;28;20031;-29
2022/01/08 07:41:12;;;;;;;4.05;1.35;;;;;;;13.57;37.04;96370.19;5093062;28;20053;-29
2022/01/08 07:43:38;;;;;;;1.83;0.80;;;;;;;13.56;37.43;96372.16;5091137;28;20102;-29
2022/01/08 07:46:04;;;;;;;2.05;1.00;;;;;;;13.54;37.17;96373.78;5093039;28;20158;-29
2022/01/08 07:48:29;;;;;;;2.33;0.95;;;;;;;13.54;37.32;96365.63;5092838;28;20031;-29
2022/01/08 07:50:55;;;;;;;1.60;0.90;;;;;;;13.61;36.63;96366.09;5092886;28;20020;-29
2022/01/08 07:53:20;;;;;;;1.25;0.82;;;;;;;13.61;36.86;96373.50;5091242;28;20073;-29
2022/01/08 07:55:45;;;;;;;1.60;0.98;;;;;;;13.58;36.99;96368.97;5092633;28;20047;-29
2022/01/08 07:58:11;;;;;;;1.30;0.88;;;;;;;13.57;37.01;96367.47;5091441;28;20461;-28
2022/01/08 08:00:37;;;;;;;1.42;0.90;;;;;;;13.61;36.99;96365.34;5092804;28;20040;-29
2022/01/08 08:03:02;;;;;;;3.88;1.20;;;;;;;13.48;36.54;96362.69;5092559;28;20035;-29
2022/01/08 08:05:30;;;;;;;5.28;1.00;;;;;;;13.56;37.18;96371.38;5091926;28;20035;-29
2022/01/08 08:07:55;;;;;;;1.98;1.10;;;;;;;13.62;36.46;96370.34;5092530;28;20028;-29
2022/01/08 08:10:22;;;;;;;1.88;1.00;;;;;;;13.61;36.65;96373.50;5092293;28;20468;-29
2022/01/08 08:12:47;;;;;;;1.83;0.82;;;;;;;13.58;36.88;96374.44;5092573;28;20394;-29
2022/01/08 08:15:15;;;;;;;2.05;1.15;;;;;;;13.60;37.03;96372.00;5092235;28;20024;-28
2022/01/08 08:17:41;;;;;;;2.38;1.13;;;;;;;13.52;36.41;96368.03;5092327;28;20027;-29
2022/01/08 08:20:07;;;;;;;2.28;1.35;;;;;;;13.64;36.81;96376.13;5091631;28;20049;-28
2022/01/08 08:22:32;;;;;;;4.60;1.50;;;;;;;13.55;36.60;96375.31;5092419;28;20056;-29
2022/01/08 08:24:58;;;;;;;4.30;1.20;;;;;;;13.52;36.81;96373.47;5092291;28;20607;-29
2022/01/08 08:27:23;;;;;;;3.10;1.30;;;;;;;13.56;37.16;96374.13;5091996;28;20123;-29
2022/01/08 08:29:49;;;;;;;4.85;1.33;;;;;;;13.52;36.88;96366.06;5091498;28;20032;-28
2022/01/08 08:32:14;;;;;;;2.85;1.50;;;;;;;13.54;36.60;96379.25;5092016;28;20043;-30
2022/01/08 08:34:40;;;;;;;3.25;1.60;;;;;;;13.58;37.08;96383.38;5091850;28;20027;-29
2022/01/08 08:37:05;;;;;;;4.32;1.63;;;;;;;13.64;36.59;96378.84;5091978;28;20023;-29
2022/01/08 08:39:31;;;;;;;2.38;1.33;;;;;;;13.57;36.77;96376.41;5091977;28;20088;-29
2022/01/08 08:41:56;;;;;;;4.03;1.60;;;;;;;13.56;36.80;96372.16;5090411;28;20032;-29
2022/01/08 08:44:22;;;;;;;4.00;1.45;;;;;;;13.60;36.79;96382.88;5091882;28;20144;-29
2022/01/08 08:46:47;;;;;;;2.65;1.40;;;;;;;13.54;36.62;96390.16;5091503;28;20020;-29
2022/01/08 08:49:13;;;;;;;2.00;1.30;;;;;;;13.58;36.78;96397.00;5091627;28;20020;-28
2022/01/08 08:51:38;;;;;;;2.53;1.27;;;;;;;13.57;36.57;96386.53;5091609;28;20025;-29
2022/01/08 08:54:04;;;;;;;3.75;1.20;;;;;;;13.56;36.87;96398.63;5089566;28;20588;-29
2022/01/08 08:56:30;;;;;;;2.15;1.50;;;;;;;13.49;36.73;96396.16;5091271;28;20044;-29
2022/01/08 08:58:55;;;;;;;2.50;1.50;;;;;;;13.62;36.71;96400.31;5090756;28;20028;-29
2022/01/08 09:01:22;;;;;;;2.45;1.73;;;;;;;13.50;36.95;96401.16;5091509;28;20485;-28
2022/01/08 09:03:47;;;;;;;3.40;1.27;;;;;;;13.56;37.14;96404.09;5091584;28;20055;-29
2022/01/08 09:06:13;;;;;;;2.05;1.23;;;;;;;13.58;36.86;96402.44;5091198;28;20059;-28
2022/01/08 09:08:38;;;;;;;1.80;1.20;;;;;;;13.62;37.20;96402.28;5091495;28;20027;-28
2022/01/08 09:11:04;;;;;;;3.22;1.23;;;;;;;13.59;36.78;96393.06;5091274;28;20486;-29
2022/01/08 09:13:30;;;;;;;3.08;1.40;;;;;;;13.55;36.93;96391.66;5090796;28;20030;-28
2022/01/08 09:15:56;;;;;;;3.45;1.20;;;;;;;13.54;36.83;96390.16;5091050;28;20140;-29
2022/01/08 09:18:21;;;;;;;2.55;1.50;;;;;;;13.48;37.15;96400.84;5090974;28;20032;-28
2022/01/08 09:20:47;;;;;;;4.15;1.20;;;;;;;13.48;37.12;96398.13;5091000;28;20032;-28
2022/01/08 09:23:13;;;;;;;1.90;1.00;;;;;;;13.55;36.97;96408.00;5089323;28;20024;-29
2022/01/08 09:25:39;;;;;;;4.10;1.00;;;;;;;13.50;37.28;96405.84;5088446;28;20431;-29
2022/01/08 09:28:04;;;;;;;2.83;1.15;;;;;;;13.42;37.10;96405.38;5091158;28;20020;-29
2022/01/08 09:30:30;;;;;;;2.20;1.15;;;;;;;13.42;37.31;96402.63;5090918;28;20572;-29
2022/01/08 09:32:56;;;;;;;2.40;1.20;;;;;;;13.44;36.96;96402.97;5091194;28;20068;-29
2022/01/08 09:35:23;;;;;;;2.17;1.25;;;;;;;13.45;37.29;96401.00;5091107;28;20023;-29
2022/01/08 09:37:50;;;;;;;3.17;1.00;;;;;;;13.46;36.95;96416.13;5091266;28;20028;-28
2022/01/08 09:40:17;;;;;;;4.00;1.38;;;;;;;13.50;37.04;96403.88;5090861;28;20039;-28
2022/01/08 09:42:43;;;;;;;3.30;1.20;;;;;;;13.53;37.00;96413.91;5089214;28;20028;-28
2022/01/08 09:45:10;;;;;;;3.35;1.70;;;;;;;13.49;36.76;96407.81;5091115;28;20024;-29
2022/01/08 09:47:36;;;;;;;5.53;2.08;;;;;;;13.42;37.21;96412.78;5089639;28;20020;-29
2022/01/08 09:50:02;;;;;;;3.45;2.17;;;;;;;13.41;37.11;96413.97;5085874;28;20035;-28
2022/01/08 09:52:32;;;;;;;3.42;2.10;;;;;;;13.50;37.20;96417.50;5090840;28;20063;-29
2022/01/08 09:54:57;;;;;;;3.63;2.08;;;;;;;13.49;36.83;96416.00;5090584;28;20028;-29
2022/01/08 09:57:23;;;;;;;3.13;2.25;;;;;;;13.47;36.59;96418.41;5090649;28;20535;-29
2022/01/08 09:59:49;;;;;;;3.75;2.58;;;;;;;13.40;37.18;96407.00;5091110;28;20554;-29
2022/01/08 10:02:21;;;;;;;3.45;1.92;;;;;;;13.49;36.62;96421.44;5090747;28;20028;-29
2022/01/08 10:04:47;;;;;;;4.30;2.10;;;;;;;13.38;36.95;96425.75;5091032;28;20020;-28
2022/01/08 10:07:23;;;;;;;2.97;1.80;;;;;;;13.44;36.83;96413.09;5090605;28;20478;-28
2022/01/08 10:10:15;;;;;;;3.67;2.17;;;;;;;13.46;36.98;96421.59;5090878;28;20091;-28
2022/01/08 10:12:54;;;;;;;4.10;1.90;;;;;;;13.55;36.71;96425.13;5090602;28;20035;-29
2022/01/08 10:18:29;;;;;;;2.28;1.70;;;;;;;13.40;36.80;96410.50;5092994;28;20028;-29
2022/01/08 10:20:56;;;;;;;3.05;1.63;;;;;;;13.46;36.98;96421.59;5092692;28;20103;-28
2022/01/08 10:23:24;;;;;;;2.47;1.30;;;;;;;13.32;36.81;96411.97;5092678;28;20035;-29
2022/01/08 10:26:13;;;;;;;2.28;1.35;;;;;;;13.33;36.89;96412.72;5092394;28;20032;-29
2022/01/08 10:28:49;;;;;;;3.63;1.40;;;;;;;13.43;36.71;96406.13;5092519;28;20470;-29
2022/01/08 10:31:27;;;;;;;2.35;1.52;;;;;;;13.41;36.92;96397.63;5092337;28;20028;-29
2022/01/08 10:34:02;;;;;;;2.70;1.30;;;;;;;13.42;36.90;96389.03;5091038;28;20028;-28
2022/01/08 10:36:50;;;;;;;1.88;1.30;;;;;;;13.42;36.49;96401.88;5089619;28;20028;-29
2022/01/08 10:39:29;;;;;;;1.60;1.15;;;;;;;13.44;36.94;96399.47;5086275;28;20036;-29
2022/01/08 10:41:57;;;;;;;3.58;1.10;;;;;;;13.46;36.42;96399.78;5088397;28;20111;-28
2022/01/08 10:44:22;;;;;;;1.83;1.23;;;;;;;13.41;36.78;96390.22;5073801;28;20021;-28
2022/01/08 10:47:07;;;;;;;2.00;1.17;;;;;;;13.28;36.45;96397.72;5074055;28;20032;-29
2022/01/08 10:49:44;;;;;;;2.10;1.02;;;;;;;13.28;36.70;96387.56;5090349;28;20036;-28
2022/01/08 10:52:20;;;;;;;2.55;1.30;;;;;;;13.40;36.56;96390.66;5093842;28;20028;-29
2022/01/08 10:55:00;;;;;;;1.73;1.00;;;;;;;13.49;36.71;96396.16;5094034;28;20043;-29
2022/01/08 10:57:51;;;;;;;3.05;1.33;;;;;;;13.49;36.46;96387.97;5090057;28;20066;-28
2022/01/08 11:00:17;;;;;;;1.85;1.13;;;;;;;13.48;36.61;96381.00;5081468;28;20036;-29
2022/01/08 11:02:44;;;;;;;1.85;1.17;;;;;;;13.49;36.85;96368.91;5078592;28;20028;-29
2022/01/08 11:05:10;;;;;;;1.92;1.00;;;;;;;13.46;36.48;96372.56;5093471;28;20051;-30
2022/01/08 11:07:39;;;;;;;2.08;1.10;;;;;;;13.45;36.79;96365.59;5091704;28;20028;-28
2022/01/08 11:10:15;;;;;;;1.55;0.82;;;;;;;13.54;36.61;96373.78;5090493;28;20107;-28
2022/01/08 11:12:42;;;;;;;2.13;1.30;;;;;;;13.39;36.24;96373.56;5071875;28;20029;-29
2022/01/08 11:17:48;;;;;;;1.88;1.05;;;;;;;13.55;36.37;96353.53;5073474;28;20097;-28
2022/01/08 11:20:15;;;;;;;2.42;1.00;;;;;;;13.33;36.59;96347.34;5074136;28;20028;-29
2022/01/08 11:22:46;;;;;;;1.88;1.10;;;;;;;13.39;36.20;96357.22;5073343;28;20043;-28
2022/01/08 11:25:24;;;;;;;1.55;1.00;;;;;;;13.54;35.90;96355.47;5078937;28;20024;-28
2022/01/08 11:28:10;;;;;;;1.45;0.93;;;;;;;13.43;35.86;96357.84;5093268;28;20386;-28
2022/01/08 11:30:40;;;;;;;1.75;1.17;;;;;;;13.55;36.07;96353.53;5093110;28;20040;-28
2022/01/08 11:33:14;;;;;;;3.00;1.30;;;;;;;13.13;36.47;96345.69;5092982;28;20024;-29
2022/01/08 11:35:41;;;;;;;1.60;1.10;;;;;;;13.46;36.60;96328.97;5093301;28;20032;-28
2022/01/08 11:38:08;;;;;;;1.73;1.00;;;;;;;13.25;36.36;96322.34;5093215;28;20031;-28
2022/01/08 11:40:36;;;;;;;1.65;1.05;;;;;;;13.32;36.79;96332.97;5093111;28;20028;-29
2022/01/08 11:43:04;;;;;;;1.55;1.23;;;;;;;13.46;36.35;96339.84;5093166;28;20036;-29
2022/01/08 11:45:33;;;;;;;2.90;1.20;;;;;;;13.39;35.87;96345.56;5092739;28;20020;-29
2022/01/08 11:48:03;;;;;;;2.17;1.17;;;;;;;13.41;36.28;96343.16;5092999;28;20111;-29
2022/01/08 11:50:30;;;;;;;1.60;1.30;;;;;;;13.41;36.27;96326.81;5092901;28;20030;-28
2022/01/08 11:53:16;;;;;;;1.85;1.15;;;;;;;13.52;36.07;96311.56;5092761;28;20463;-29
2022/01/08 11:55:44;;;;;;;2.15;1.00;;;;;;;13.52;35.73;96310.81;5090782;28;20097;-29
2022/01/08 11:58:25;;;;;;;1.48;1.00;;;;;;;13.44;35.72;96315.03;5091847;28;20046;-29